Penn Yan, NY

7:44 AM EST on February 06, 2016 (GMT -0500)
LaBelleVie 208 Main Street | | Change Station
CLOSE
Current Station
Personal Weather Station
Location: Penn Yan, NY
Elevation: 743 ft
Nearby Weather Stations

Elev 743 ft 42.66 °N, 77.06 °W | Updated 78 days ago

Mostly Cloudy
Mostly Cloudy
35 °F
Feels Like 28 °F
N
10
Wind Variable Wind from SW
Gusts 19 mph

Today
High -- | Low -- °F
--% Chance of Precip.
Yesterday
High -- | Low -- °F
Precip. -- in
Pressure 30.29 in
Visibility 10.0 miles
Clouds Overcast 7000 ft
Windchill 28 °F
Dew Point 20 °F
Humidity 54%
Rainfall in
Snow Depth Not available.
7:17 AM 5:27 PM
Waning Crescent, 6% visible
METAR KPEO 061153Z AUTO 18009KT 10SM OVC070 M02/M08 A3025 RMK AO2 SLP256 T10221078 11022 21028 56002 TSNO
Pressure 30.29 in
Visibility 10.0 miles
Clouds Overcast 7000 ft
Windchill 28 °F
Dew Point 20 °F
Humidity 54%
Rainfall in
Snow Depth Not available.
7:17 AM 5:27 PM
Waning Crescent, 6% visible
METAR KPEO 061153Z AUTO 18009KT 10SM OVC070 M02/M08 A3025 RMK AO2 SLP256 T10221078 11022 21028 56002 TSNO

10-Day Weather Forecast

Almanac

Astronomy

Feb. 06, 2016 Rise Set
Actual Time
Civil Twilight
Nautical Twilight
Astronomical Twilight
Moon
Length of Visible Light
Length of Day
Tomorrow will be .
, % of the Moon is Illuminated

Today's Extremes

State Highs State Lows

Community

WunderPhotos

Upload Photos

1,890,954 photos uploaded!

WunderBlog® & News

Nearby

Air Quality

  Air Quality AQ Index Pollutant
Not available.

Snow Depth

Station Depth Elevation

Earthquake Activity

City Distance Mag. Time & Date
Minimum magnitude displayed is 2.5.

Coastal Water Temperatures

Place Temperature

Stations

Nearby Weather Stations

Station Location Temp. Windchill Dew Point Humidity Wind Precip. Elev Updated Type
                   

Watches & Warnings

There are currently no watches in effect.